createdAt,value
2019-04-06T00:02:03.848Z,97189.64
2019-04-06T00:04:35.634Z,97185.27
2019-04-06T00:07:07.428Z,97185.02
2019-04-06T00:09:39.210Z,97182.38
2019-04-06T00:12:10.954Z,97194.13
2019-04-06T00:14:42.854Z,97190.28
2019-04-06T00:17:14.469Z,97192.72
2019-04-06T00:19:46.240Z,97184.95
2019-04-06T00:22:18.005Z,97185.11
2019-04-06T00:24:50.742Z,97177.76
2019-04-06T00:27:24.579Z,97175.77
2019-04-06T00:29:55.848Z,97173.58
2019-04-06T00:32:33.986Z,97164.94
2019-04-06T00:35:05.965Z,97151.00
2019-04-06T00:37:39.905Z,97150.10
2019-04-06T00:40:11.966Z,97152.94
2019-04-06T00:42:43.765Z,97151.17
2019-04-06T00:45:15.713Z,97152.07
2019-04-06T00:47:47.460Z,97143.11
2019-04-06T00:50:19.237Z,97155.59
2019-04-06T00:52:50.849Z,97143.08
2019-04-06T00:55:22.958Z,97142.02
2019-04-06T00:57:54.710Z,97140.19
2019-04-06T01:00:27.664Z,97137.42
2019-04-06T01:03:00.753Z,97143.49
2019-04-06T01:05:32.474Z,97135.78
2019-04-06T01:08:04.213Z,97130.46
2019-04-06T01:10:36.024Z,97131.27
2019-04-06T01:13:07.807Z,97139.23
2019-04-06T01:15:41.064Z,97140.26
2019-04-06T01:18:12.843Z,97135.02
2019-04-06T01:20:44.555Z,97139.14
2019-04-06T01:23:16.213Z,97138.50
2019-04-06T01:25:47.946Z,97137.28
2019-04-06T01:28:19.545Z,97144.72
2019-04-06T01:30:51.250Z,97137.22
2019-04-06T01:33:22.967Z,97121.32
2019-04-06T01:35:54.639Z,97119.30
2019-04-06T01:38:26.403Z,97117.30
2019-04-06T01:40:58.126Z,97109.89
2019-04-06T01:43:30.115Z,97122.34
2019-04-06T01:46:01.856Z,97113.42
2019-04-06T01:48:33.627Z,97117.02
2019-04-06T01:51:05.323Z,97118.92
2019-04-06T01:53:37.073Z,97119.76
2019-04-06T01:56:17.915Z,97118.44
2019-04-06T01:58:42.800Z,97120.46
2019-04-06T02:01:22.331Z,97114.88
2019-04-06T02:03:54.045Z,97118.19
2019-04-06T02:06:25.720Z,97113.43
2019-04-06T02:08:57.439Z,97108.20
2019-04-06T02:11:29.155Z,97110.93
2019-04-06T02:14:00.890Z,97104.09
2019-04-06T02:16:32.774Z,97108.17
2019-04-06T02:19:04.622Z,97123.58
2019-04-06T02:21:36.336Z,97121.04
2019-04-06T02:24:08.022Z,97117.89
2019-04-06T02:26:39.732Z,97124.86
2019-04-06T02:29:11.430Z,97127.81
2019-04-06T02:32:03.786Z,97117.25
2019-04-06T02:34:53.167Z,97121.75
2019-04-06T02:37:32.403Z,97124.86
2019-04-06T02:40:10.692Z,97114.37
2019-04-06T02:42:47.493Z,97106.47
2019-04-06T02:45:19.239Z,97111.67
2019-04-06T02:47:50.951Z,97111.61
2019-04-06T02:50:22.767Z,97105.67
2019-04-06T02:52:54.612Z,97103.75
2019-04-06T02:55:26.368Z,97104.70
2019-04-06T02:57:58.086Z,97100.50
2019-04-06T03:00:30.116Z,97103.91
2019-04-06T03:03:01.883Z,97097.30
2019-04-06T03:05:33.726Z,97091.62
2019-04-06T03:08:05.592Z,97089.95
2019-04-06T03:10:37.452Z,97099.86
2019-04-06T03:13:09.315Z,97097.90
2019-04-06T03:15:41.193Z,97087.34
2019-04-06T03:18:13.113Z,97092.28
2019-04-06T03:20:44.937Z,97093.12
2019-04-06T03:23:16.805Z,97095.43
2019-04-06T03:25:48.576Z,97095.39
2019-04-06T03:28:20.213Z,97095.43
2019-04-06T03:30:52.586Z,97083.53
2019-04-06T03:33:25.657Z,97079.94
2019-04-06T03:35:58.248Z,97072.69
2019-04-06T03:38:29.988Z,97073.58
2019-04-06T03:41:01.903Z,97073.77
2019-04-06T03:43:33.684Z,97072.75
2019-04-06T03:46:06.041Z,97075.60
2019-04-06T03:48:37.975Z,97071.53
2019-04-06T03:51:09.900Z,97070.59
2019-04-06T03:53:41.771Z,97072.91
2019-04-06T03:56:13.567Z,97073.09
2019-04-06T03:58:45.483Z,97083.91
2019-04-06T04:01:17.351Z,97074.44
2019-04-06T04:03:50.723Z,97070.69
2019-04-06T04:06:22.453Z,97066.84
2019-04-06T04:08:54.236Z,97071.13
2019-04-06T04:11:26.014Z,97080.16
2019-04-06T04:13:58.380Z,97081.79
2019-04-06T04:16:30.280Z,97088.05
2019-04-06T04:19:02.387Z,97100.58
2019-04-06T04:21:34.111Z,97096.13
2019-04-06T04:24:05.809Z,97101.25
2019-04-06T04:26:37.636Z,97104.72
2019-04-06T04:29:10.728Z,97113.99
2019-04-06T04:31:42.549Z,97111.53
2019-04-06T04:34:14.350Z,97104.76
2019-04-06T04:36:46.079Z,97108.61
2019-04-06T04:39:17.934Z,97105.05
2019-04-06T04:41:49.630Z,97104.95
2019-04-06T04:44:21.226Z,97094.59
2019-04-06T04:46:52.964Z,97089.75
2019-04-06T04:49:25.945Z,97109.39
2019-04-06T04:51:57.844Z,97117.92
2019-04-06T04:54:29.596Z,97116.00
2019-04-06T04:57:01.222Z,97108.91
2019-04-06T04:59:32.993Z,97109.64
2019-04-06T05:02:04.836Z,97118.27
2019-04-06T05:04:36.473Z,97112.89
2019-04-06T05:07:08.179Z,97113.05
2019-04-06T05:09:39.832Z,97115.26
2019-04-06T05:12:11.507Z,97120.69
2019-04-06T05:15:04.709Z,97122.84
2019-04-06T05:17:36.326Z,97118.41
2019-04-06T05:20:10.363Z,97124.31
2019-04-06T05:22:42.364Z,97120.97
2019-04-06T05:25:14.305Z,97134.20
2019-04-06T05:27:52.064Z,97136.67
2019-04-06T05:30:20.154Z,97136.96
2019-04-06T05:32:51.856Z,97127.69
2019-04-06T05:35:24.066Z,97126.87
2019-04-06T05:37:57.128Z,97133.95
2019-04-06T05:40:29.397Z,97136.67
2019-04-06T05:43:02.361Z,97145.23
2019-04-06T05:45:35.438Z,97144.95
2019-04-06T05:48:07.329Z,97149.45
2019-04-06T05:50:39.070Z,97153.48
2019-04-06T05:53:11.097Z,97157.50
2019-04-06T05:55:42.855Z,97155.80
2019-04-06T05:58:14.976Z,97153.72
2019-04-06T06:00:46.763Z,97158.69
2019-04-06T06:03:18.435Z,97161.25
2019-04-06T06:05:50.164Z,97149.50
2019-04-06T06:08:21.747Z,97146.80
2019-04-06T06:10:55.018Z,97154.98
2019-04-06T06:13:27.054Z,97151.73
2019-04-06T06:15:58.763Z,97165.78
2019-04-06T06:18:30.346Z,97158.52
2019-04-06T06:21:02.301Z,97162.76
2019-04-06T06:23:34.031Z,97170.84
2019-04-06T06:26:05.989Z,97166.16
2019-04-06T06:28:37.633Z,97172.41
2019-04-06T06:31:10.746Z,97171.68
2019-04-06T06:33:42.582Z,97183.33
2019-04-06T06:36:14.348Z,97185.18
2019-04-06T06:38:46.057Z,97190.16
2019-04-06T06:41:17.802Z,97191.42
2019-04-06T06:43:49.433Z,97198.15
2019-04-06T06:46:21.175Z,97192.91
2019-04-06T06:48:52.838Z,97200.99
2019-04-06T06:51:24.669Z,97201.73
2019-04-06T06:53:59.112Z,97199.72
2019-04-06T06:56:31.152Z,97199.06
2019-04-06T06:59:03.035Z,97199.77
2019-04-06T07:01:34.780Z,97205.39
2019-04-06T07:04:06.757Z,97203.72
2019-04-06T07:06:38.611Z,97208.22
2019-04-06T07:09:11.092Z,97212.88
2019-04-06T07:11:42.722Z,97212.50
2019-04-06T07:14:14.548Z,97216.90
2019-04-06T07:16:46.298Z,97220.75
2019-04-06T07:19:19.613Z,97218.11
2019-04-06T07:21:51.541Z,97216.16
2019-04-06T07:24:23.320Z,97215.36
2019-04-06T07:26:55.043Z,97217.47
2019-04-06T07:29:26.820Z,97215.29
2019-04-06T07:31:58.615Z,97218.05
2019-04-06T07:34:30.554Z,97231.56
2019-04-06T07:37:02.258Z,97221.02
2019-04-06T07:39:33.950Z,97218.36
2019-04-06T07:42:05.618Z,97222.77
2019-04-06T07:44:37.311Z,97220.38
2019-04-06T07:47:10.753Z,97223.42
2019-04-06T07:49:43.640Z,97229.85
2019-04-06T07:52:15.695Z,97230.50
2019-04-06T07:54:47.428Z,97229.97
2019-04-06T07:57:19.156Z,97235.47
2019-04-06T07:59:50.850Z,97233.36
2019-04-06T08:02:22.442Z,97238.52
2019-04-06T08:04:54.752Z,97241.72
2019-04-06T08:07:26.434Z,97242.00
2019-04-06T08:10:02.921Z,97235.08
2019-04-06T08:12:34.688Z,97232.02
2019-04-06T08:15:06.992Z,97245.48
2019-04-06T08:17:40.164Z,97236.85
2019-04-06T08:20:12.132Z,97246.38
2019-04-06T08:22:43.781Z,97232.00
2019-04-06T08:25:15.533Z,97237.47
2019-04-06T08:27:47.968Z,97223.76
2019-04-06T08:30:19.853Z,97223.48
2019-04-06T08:32:53.707Z,97224.42
2019-04-06T08:35:26.626Z,97223.34
2019-04-06T08:37:58.746Z,97233.73
2019-04-06T08:40:30.491Z,97231.72
2019-04-06T08:43:02.234Z,97234.56
2019-04-06T08:45:34.139Z,97209.46
2019-04-06T08:48:07.040Z,97228.51
2019-04-06T08:50:38.698Z,97227.58
2019-04-06T08:53:10.480Z,97220.16
2019-04-06T08:55:42.304Z,97233.27
2019-04-06T08:58:14.078Z,97224.53
2019-04-06T09:00:45.864Z,97225.46
2019-04-06T09:03:17.592Z,97221.17
2019-04-06T09:05:49.341Z,97211.56
2019-04-06T09:08:20.872Z,97217.92
2019-04-06T09:10:52.739Z,97212.69
2019-04-06T09:13:24.354Z,97213.78
2019-04-06T09:15:56.133Z,97210.59
2019-04-06T09:18:28.835Z,97212.42
2019-04-06T09:21:00.800Z,97210.62
2019-04-06T09:23:32.553Z,97209.63
2019-04-06T09:26:04.315Z,97213.46
2019-04-06T09:28:36.098Z,97209.44
2019-04-06T09:31:07.663Z,97213.77
2019-04-06T09:33:39.570Z,97213.50
2019-04-06T09:36:11.214Z,97202.20
2019-04-06T09:38:42.949Z,97210.55
2019-04-06T09:41:14.904Z,97212.11
2019-04-06T09:43:46.984Z,97212.47
2019-04-06T09:46:36.953Z,97197.75
2019-04-06T09:49:26.555Z,97203.03
2019-04-06T09:52:15.856Z,97205.03
2019-04-06T09:55:04.122Z,97207.17
2019-04-06T09:57:46.730Z,97204.59
2019-04-06T10:00:43.589Z,97208.33
2019-04-06T10:03:41.973Z,97203.07
2019-04-06T10:06:32.444Z,97199.34
2019-04-06T10:09:32.811Z,97205.52
2019-04-06T10:12:32.148Z,97199.32
2019-04-06T10:15:37.626Z,97196.11
2019-04-06T10:18:28.098Z,97201.47
2019-04-06T10:21:37.000Z,97203.90
2019-04-06T10:24:42.689Z,97207.66
2019-04-06T10:27:39.087Z,97202.89
2019-04-06T10:30:28.412Z,97202.89
2019-04-06T10:33:08.960Z,97214.14
2019-04-06T10:36:02.451Z,97191.65
2019-04-06T10:38:53.073Z,97195.33
2019-04-06T10:41:34.190Z,97195.33
2019-04-06T10:44:16.161Z,97183.30
2019-04-06T10:47:05.664Z,97174.02
2019-04-06T10:50:08.104Z,97174.02
2019-04-06T10:53:10.440Z,97179.09
2019-04-06T10:55:52.965Z,97175.23
2019-04-06T10:58:42.618Z,97183.59
2019-04-06T11:01:23.079Z,97181.93
2019-04-06T11:04:14.671Z,97178.89
2019-04-06T11:06:58.941Z,97179.53
2019-04-06T11:10:04.770Z,97171.77
2019-04-06T11:12:53.701Z,97169.36
2019-04-06T11:15:48.587Z,97175.98
2019-04-06T11:18:41.896Z,97169.41
2019-04-06T11:21:27.655Z,97164.44
2019-04-06T11:24:14.807Z,97167.32
2019-04-06T11:27:05.324Z,97163.96
2019-04-06T11:30:13.131Z,97154.50
2019-04-06T11:32:55.927Z,97161.18
2019-04-06T11:35:46.731Z,97151.67
2019-04-06T11:38:42.525Z,97157.73
2019-04-06T11:41:23.705Z,97157.25
2019-04-06T11:44:03.932Z,97139.06
2019-04-06T11:46:57.180Z,97148.33
2019-04-06T11:49:52.431Z,97146.38
2019-04-06T11:52:41.664Z,97148.00
2019-04-06T11:55:35.233Z,97138.69
2019-04-06T11:58:21.633Z,97138.41
2019-04-06T12:01:13.148Z,97127.73
2019-04-06T12:04:06.977Z,97131.36
2019-04-06T12:06:53.585Z,97128.86
2019-04-06T12:09:34.114Z,97132.11
2019-04-06T12:12:24.413Z,97118.59
2019-04-06T12:15:24.073Z,97123.80
2019-04-06T12:18:32.661Z,97124.95
2019-04-06T12:21:16.611Z,97118.83
2019-04-06T12:24:13.094Z,97118.96
2019-04-06T12:27:12.954Z,97098.70
2019-04-06T12:30:09.618Z,97104.58
2019-04-06T12:33:09.008Z,97104.58
2019-04-06T12:35:56.598Z,97101.41
2019-04-06T12:38:37.739Z,97092.57
2019-04-06T12:41:25.007Z,97098.09
2019-04-06T12:44:24.205Z,97098.09
2019-04-06T12:47:12.079Z,97084.09
2019-04-06T12:50:09.921Z,97089.63
2019-04-06T12:53:03.496Z,97092.58
2019-04-06T12:55:52.504Z,97093.78
2019-04-06T12:58:41.606Z,97079.66
2019-04-06T13:01:35.525Z,97075.73
2019-04-06T13:04:29.148Z,97075.22
2019-04-06T13:07:18.332Z,97078.89
2019-04-06T13:10:23.804Z,97074.44
2019-04-06T13:13:17.574Z,97076.77
2019-04-06T13:15:54.753Z,97079.64
2019-04-06T13:18:37.550Z,97076.67
2019-04-06T13:21:32.081Z,97075.30
2019-04-06T13:24:37.622Z,97069.05
2019-04-06T13:27:28.556Z,97073.85
2019-04-06T13:30:19.003Z,97063.66
2019-04-06T13:33:15.243Z,97067.07
2019-04-06T13:36:08.364Z,97061.36
2019-04-06T13:38:47.762Z,97062.59
2019-04-06T13:41:37.211Z,97067.64
2019-04-06T13:44:26.174Z,97061.09
2019-04-06T13:47:25.860Z,97055.59
2019-04-06T13:50:07.649Z,97048.09
2019-04-06T13:52:47.008Z,97048.56
2019-04-06T13:55:41.303Z,97050.34
2019-04-06T13:58:32.064Z,97053.16
2019-04-06T14:01:17.562Z,97051.80
2019-04-06T14:04:13.258Z,97046.30
2019-04-06T14:06:56.863Z,97049.20
2019-04-06T14:09:50.198Z,97046.05
2019-04-06T14:12:43.755Z,97041.92
2019-04-06T14:15:44.811Z,97042.49
2019-04-06T14:18:27.803Z,97048.94
2019-04-06T14:21:36.677Z,97045.06
2019-04-06T14:24:29.936Z,97037.23
2019-04-06T14:27:09.272Z,97037.38
2019-04-06T14:29:59.685Z,97038.48
2019-04-06T14:32:48.762Z,97026.20
2019-04-06T14:35:40.287Z,97028.81
2019-04-06T14:38:43.103Z,97025.59
2019-04-06T14:41:31.842Z,97032.08
2019-04-06T14:44:14.042Z,97033.32
2019-04-06T14:47:10.594Z,97031.45
2019-04-06T14:50:07.052Z,97041.09
2019-04-06T14:52:47.742Z,97036.77
2019-04-06T14:55:39.084Z,97046.69
2019-04-06T14:58:28.466Z,97047.32
2019-04-06T15:01:16.609Z,97045.05
2019-04-06T15:04:10.818Z,97047.32
2019-04-06T15:07:11.581Z,97042.50
2019-04-06T15:09:59.722Z,97044.64
2019-04-06T15:12:53.481Z,97041.39
2019-04-06T15:15:42.819Z,97035.84
2019-04-06T15:18:44.450Z,97036.91
2019-04-06T15:21:33.507Z,97037.31
2019-04-06T15:24:36.245Z,97037.45
2019-04-06T15:27:28.932Z,97038.63
2019-04-06T15:30:34.680Z,97034.60
2019-04-06T15:33:43.635Z,97037.72
2019-04-06T15:36:37.346Z,97043.39
2019-04-06T15:39:30.396Z,97041.48
2019-04-06T15:42:19.879Z,97041.27
2019-04-06T15:45:16.671Z,97052.67
2019-04-06T15:48:13.381Z,97053.42
2019-04-06T15:51:04.025Z,97059.17
2019-04-06T15:53:53.614Z,97057.61
2019-04-06T15:56:45.729Z,97065.05
2019-04-06T15:59:37.201Z,97064.67
2019-04-06T16:02:27.754Z,97061.65
2019-04-06T16:05:15.585Z,97064.50
2019-04-06T16:08:08.187Z,97064.55
2019-04-06T16:11:16.575Z,97068.58
2019-04-06T16:14:10.086Z,97065.45
2019-04-06T16:16:46.369Z,97064.02
2019-04-06T16:19:35.755Z,97068.33
2019-04-06T16:22:44.541Z,97071.19
2019-04-06T16:25:37.744Z,97071.38
2019-04-06T16:28:22.210Z,97072.01
2019-04-06T16:31:12.676Z,97065.86
2019-04-06T16:34:01.477Z,97061.27
2019-04-06T16:37:02.049Z,97066.23
2019-04-06T16:39:48.366Z,97059.73
2019-04-06T16:42:44.406Z,97063.85
2019-04-06T16:45:28.200Z,97061.27
2019-04-06T16:48:21.443Z,97059.53
2019-04-06T16:51:18.675Z,97060.16
2019-04-06T16:54:27.581Z,97060.64
2019-04-06T16:57:11.263Z,97048.33
2019-04-06T17:00:17.006Z,97052.00
2019-04-06T17:03:09.508Z,97045.86
2019-04-06T17:06:02.809Z,97055.23
2019-04-06T17:08:42.390Z,97053.75
2019-04-06T17:11:38.595Z,97050.83
2019-04-06T17:14:32.557Z,97047.53
2019-04-06T17:17:16.350Z,97052.65
2019-04-06T17:20:06.810Z,97045.69
2019-04-06T17:22:51.617Z,97042.91
2019-04-06T17:25:34.464Z,97041.45
2019-04-06T17:28:34.139Z,97043.19
2019-04-06T17:31:36.679Z,97049.34
2019-04-06T17:34:34.943Z,97042.26
2019-04-06T17:37:20.702Z,97045.23
2019-04-06T17:40:10.099Z,97044.84
2019-04-06T17:43:00.836Z,97042.38
2019-04-06T17:45:51.179Z,97047.23
2019-04-06T17:48:47.591Z,97046.41
2019-04-06T17:51:40.951Z,97038.88
2019-04-06T17:54:29.943Z,97040.72
2019-04-06T17:57:20.385Z,97047.31
2019-04-06T18:00:08.654Z,97061.11
2019-04-06T18:02:58.673Z,97067.14
2019-04-06T18:06:07.820Z,97069.14
2019-04-06T18:09:01.709Z,97067.88
2019-04-06T18:11:50.058Z,97061.17
2019-04-06T18:14:21.795Z,97073.56
2019-04-06T18:16:53.882Z,97080.06
2019-04-06T18:19:25.993Z,97079.42
2019-04-06T18:21:58.314Z,97078.88
2019-04-06T18:24:30.657Z,97085.85
2019-04-06T18:27:02.819Z,97090.34
2019-04-06T18:29:34.708Z,97086.31
2019-04-06T18:32:12.732Z,97090.36
2019-04-06T18:34:44.318Z,97094.95
2019-04-06T18:37:38.126Z,97083.47
2019-04-06T18:40:30.517Z,97084.55
2019-04-06T18:43:02.590Z,97086.06
2019-04-06T18:45:34.395Z,97086.06
2019-04-06T18:48:06.709Z,97082.73
2019-04-06T18:50:39.127Z,97074.64
2019-04-06T18:53:11.456Z,97081.35
2019-04-06T18:55:43.410Z,97080.80
2019-04-06T18:58:16.679Z,97081.42
2019-04-06T19:00:48.441Z,97076.27
2019-04-06T19:03:21.182Z,97071.87
2019-04-06T19:05:52.845Z,97066.92
2019-04-06T19:08:24.988Z,97071.16
2019-04-06T19:10:56.954Z,97064.73
2019-04-06T19:13:28.685Z,97066.30
2019-04-06T19:16:00.507Z,97063.35
2019-04-06T19:18:32.200Z,97063.42
2019-04-06T19:21:04.017Z,97063.53
2019-04-06T19:23:35.696Z,97060.78
2019-04-06T19:26:07.639Z,97062.64
2019-04-06T19:28:40.353Z,97066.96
2019-04-06T19:31:12.530Z,97061.64
2019-04-06T19:33:44.593Z,97060.97
2019-04-06T19:36:18.071Z,97061.19
2019-04-06T19:38:50.062Z,97067.05
2019-04-06T19:41:22.422Z,97066.78
2019-04-06T19:43:54.428Z,97062.64
2019-04-06T19:46:26.322Z,97061.84
2019-04-06T19:48:58.511Z,97062.29
2019-04-06T19:51:30.908Z,97060.89
2019-04-06T19:54:05.258Z,97061.38
2019-04-06T19:56:36.517Z,97056.13
2019-04-06T19:59:08.717Z,97055.77
2019-04-06T20:01:41.217Z,97060.19
2019-04-06T20:04:13.189Z,97061.11
2019-04-06T20:06:44.888Z,97059.69
2019-04-06T20:09:16.766Z,97064.48
2019-04-06T20:11:48.774Z,97059.62
2019-04-06T20:14:20.891Z,97052.66
2019-04-06T20:16:52.861Z,97049.90
2019-04-06T20:19:25.166Z,97052.09
2019-04-06T20:21:57.766Z,97048.91
2019-04-06T20:24:30.051Z,97052.56
2019-04-06T20:27:02.401Z,97057.34
2019-04-06T20:29:34.222Z,97050.91
2019-04-06T20:32:06.730Z,97049.44
2019-04-06T20:34:39.000Z,97054.30
2019-04-06T20:37:14.905Z,97052.83
2019-04-06T20:39:46.813Z,97042.00
2019-04-06T20:42:18.753Z,97048.07
2019-04-06T20:44:50.420Z,97047.87
2019-04-06T20:47:22.186Z,97047.77
2019-04-06T20:49:53.989Z,97052.45
2019-04-06T20:52:26.469Z,97047.97
2019-04-06T20:54:59.000Z,97052.08
2019-04-06T20:57:30.719Z,97043.08
2019-04-06T21:00:02.797Z,97052.08
2019-04-06T21:02:35.051Z,97051.90
2019-04-06T21:05:07.180Z,97036.92
2019-04-06T21:07:39.141Z,97036.75
2019-04-06T21:10:11.309Z,97044.84
2019-04-06T21:12:43.353Z,97038.89
2019-04-06T21:15:20.053Z,97035.31
2019-04-06T21:17:49.412Z,97033.74
2019-04-06T21:20:21.894Z,97031.09
2019-04-06T21:22:53.745Z,97023.56
2019-04-06T21:25:25.534Z,97023.39
2019-04-06T21:27:57.130Z,97017.88
2019-04-06T21:30:29.868Z,97012.92
2019-04-06T21:33:01.749Z,97011.81
2019-04-06T21:35:33.536Z,97013.39
2019-04-06T21:38:05.542Z,97009.06
2019-04-06T21:40:37.362Z,97004.30
2019-04-06T21:43:09.211Z,97005.20
2019-04-06T21:45:40.958Z,96999.34
2019-04-06T21:48:12.784Z,96998.78
2019-04-06T21:50:44.525Z,96994.48
2019-04-06T21:53:16.617Z,96991.28
2019-04-06T21:55:48.440Z,96990.27
2019-04-06T21:58:20.343Z,96986.95
2019-04-06T22:00:55.275Z,96976.77
2019-04-06T22:03:27.353Z,96976.66
2019-04-06T22:05:59.675Z,96980.91
2019-04-06T22:08:31.795Z,96973.09
2019-04-06T22:11:07.051Z,96970.34
2019-04-06T22:13:39.626Z,96969.97
2019-04-06T22:16:11.531Z,96963.61
2019-04-06T22:18:43.267Z,96956.77
2019-04-06T22:21:14.991Z,96949.30
2019-04-06T22:23:47.462Z,96946.38
2019-04-06T22:26:19.374Z,96948.91
2019-04-06T22:28:51.097Z,96945.44
2019-04-06T22:31:22.777Z,96947.63
2019-04-06T22:33:54.490Z,96947.11
2019-04-06T22:36:26.124Z,96935.60
2019-04-06T22:38:57.941Z,96928.45
2019-04-06T22:41:29.874Z,96920.63
2019-04-06T22:44:01.875Z,96918.06
2019-04-06T22:46:33.755Z,96922.93
2019-04-06T22:49:05.669Z,96920.02
2019-04-06T22:51:37.981Z,96914.61
2019-04-06T22:54:10.589Z,96912.77
2019-04-06T22:56:42.902Z,96904.30
2019-04-06T22:59:14.782Z,96909.46
2019-04-06T23:01:46.573Z,96901.02
2019-04-06T23:04:49.516Z,96894.89
2019-04-06T23:07:20.158Z,96894.45
2019-04-06T23:09:52.118Z,96893.70
2019-04-06T23:12:24.556Z,96885.45
2019-04-06T23:14:56.528Z,96881.98
2019-04-06T23:17:28.259Z,96884.72
2019-04-06T23:20:00.275Z,96881.81
2019-04-06T23:22:32.251Z,96885.73
2019-04-06T23:25:04.092Z,96873.78
2019-04-06T23:27:37.699Z,96884.05
2019-04-06T23:30:10.754Z,96884.21
2019-04-06T23:32:42.791Z,96881.80
2019-04-06T23:35:15.225Z,96878.61
2019-04-06T23:37:47.170Z,96874.91
2019-04-06T23:40:18.986Z,96876.91
2019-04-06T23:42:50.562Z,96877.23
2019-04-06T23:45:23.442Z,96875.54
2019-04-06T23:47:55.902Z,96871.07
2019-04-06T23:50:28.056Z,96879.58
2019-04-06T23:53:01.421Z,96876.72
2019-04-06T23:55:33.990Z,96883.30
2019-04-06T23:58:09.594Z,96873.45
